Time;durP1;ratioP1;P1;durP2;ratioP2;P2;SDS_P1;SDS_P2;PMS_P1;PMS_P2;Temp;Humidity;BMP_temperature;BMP_pressure;BME280_temperature;BME280_humidity;BME280_pressure;Samples;Min_cycle;Max_cycle;Signal;HPM_P1;HPM_P2
2023/08/11 00:02:18;;;;;;;1.85;1.50;;;15.80;93.00;;;;;;5133940;27;20076;-67
2023/08/11 00:04:44;;;;;;;1.83;1.40;;;15.80;93.10;;;;;;5133123;27;20398;-67
2023/08/11 00:07:10;;;;;;;2.25;1.70;;;15.80;93.00;;;;;;5133874;28;20031;-67
2023/08/11 00:09:36;;;;;;;2.33;1.42;;;15.80;92.90;;;;;;5133497;28;20023;-67
2023/08/11 00:12:02;;;;;;;2.25;1.58;;;15.70;92.60;;;;;;5133843;28;20031;-66
2023/08/11 00:14:28;;;;;;;2.80;1.80;;;15.70;92.50;;;;;;5133427;28;20019;-68
2023/08/11 00:16:53;;;;;;;2.78;2.08;;;15.70;92.40;;;;;;5133689;28;20498;-68
2023/08/11 00:19:19;;;;;;;4.28;1.70;;;15.70;92.40;;;;;;5133468;28;20023;-66
2023/08/11 00:21:45;;;;;;;3.13;1.92;;;15.70;92.60;;;;;;5133262;28;20379;-66
2023/08/11 00:24:11;;;;;;;3.28;1.80;;;15.70;92.60;;;;;;5133695;28;20399;-66
2023/08/11 00:26:37;;;;;;;2.15;1.63;;;15.70;92.40;;;;;;5133196;28;20111;-66
2023/08/11 00:29:02;;;;;;;4.50;1.50;;;15.70;92.60;;;;;;5133627;28;20066;-66
2023/08/11 00:31:28;;;;;;;3.60;1.58;;;15.70;92.50;;;;;;5133496;28;20023;-66
2023/08/11 00:33:55;;;;;;;2.83;1.88;;;15.60;92.00;;;;;;5133657;27;20110;-66
2023/08/11 00:36:20;;;;;;;1.90;1.50;;;15.60;92.00;;;;;;5137521;27;20032;-66
2023/08/11 00:38:46;;;;;;;4.00;1.67;;;15.60;92.20;;;;;;5137282;27;20050;-66
2023/08/11 00:41:11;;;;;;;1.98;1.58;;;15.60;92.40;;;;;;5137617;27;20035;-66
2023/08/11 00:43:37;;;;;;;3.33;1.60;;;15.50;92.60;;;;;;5137203;27;20455;-66
2023/08/11 00:46:11;;;;;;;2.17;1.63;;;15.50;92.80;;;;;;5137428;27;20027;-66
2023/08/11 00:48:41;;;;;;;1.65;1.42;;;15.50;93.00;;;;;;5137172;27;20047;-66
2023/08/11 00:51:09;;;;;;;2.70;1.58;;;15.40;93.30;;;;;;5137477;27;20023;-66
2023/08/11 00:53:36;;;;;;;2.40;1.75;;;15.40;93.30;;;;;;5136985;27;20034;-66
2023/08/11 00:56:03;;;;;;;2.38;1.60;;;15.40;93.40;;;;;;5137263;27;20035;-66
2023/08/11 00:58:30;;;;;;;2.58;1.70;;;15.30;93.50;;;;;;5136709;27;20027;-73
2023/08/11 01:00:57;;;;;;;2.70;1.90;;;15.30;93.70;;;;;;5137224;27;20030;-66
2023/08/11 01:03:23;;;;;;;6.15;1.77;;;15.20;93.80;;;;;;5137728;27;20023;-67
2023/08/11 01:06:03;;;;;;;2.80;1.42;;;15.20;94.10;;;;;;5139811;27;20034;-66
2023/08/11 01:08:49;;;;;;;2.97;1.50;;;15.20;94.20;;;;;;5125516;27;20034;-67
2023/08/11 01:11:52;;;;;;;2.97;1.58;;;15.20;94.50;;;;;;5119223;28;20140;-66
2023/08/11 01:14:25;;;;;;;3.55;1.55;;;15.10;94.60;;;;;;5118885;28;20024;-67
2023/08/11 01:16:53;;;;;;;3.25;1.80;;;15.10;94.70;;;;;;5118606;28;20034;-66
2023/08/11 01:19:32;;;;;;;3.35;2.05;;;15.10;94.80;;;;;;5118907;28;20439;-66
2023/08/11 01:22:01;;;;;;;2.78;1.50;;;15.10;94.80;;;;;;5118647;28;20498;-66
2023/08/11 01:24:29;;;;;;;2.05;1.67;;;15.10;94.70;;;;;;5123205;27;20023;-66
2023/08/11 01:26:57;;;;;;;2.42;1.70;;;15.10;94.70;;;;;;5136132;27;20395;-66
2023/08/11 01:29:26;;;;;;;7.57;1.70;;;15.10;94.80;;;;;;5136775;27;20023;-67
2023/08/11 01:31:51;;;;;;;2.33;1.60;;;15.10;94.80;;;;;;5136391;27;20463;-67
2023/08/11 01:34:17;;;;;;;1.92;1.60;;;15.10;94.80;;;;;;5136782;27;20030;-67
2023/08/11 01:36:43;;;;;;;3.22;1.75;;;15.00;94.80;;;;;;5136320;27;20027;-67
2023/08/11 01:39:09;;;;;;;3.35;1.83;;;15.10;94.80;;;;;;5137017;27;20043;-67
2023/08/11 01:41:37;;;;;;;1.95;1.60;;;15.10;94.80;;;;;;5135976;27;20042;-67
2023/08/11 01:44:03;;;;;;;2.03;1.48;;;15.00;94.80;;;;;;5136488;27;20046;-67
2023/08/11 01:46:30;;;;;;;1.65;1.50;;;15.00;94.80;;;;;;5135481;27;20420;-67
2023/08/11 01:48:57;;;;;;;3.05;1.80;;;15.00;95.00;;;;;;5135939;27;20074;-67
2023/08/11 01:51:26;;;;;;;4.30;1.60;;;15.00;95.10;;;;;;5136549;27;20035;-67
2023/08/11 01:53:52;;;;;;;2.75;1.63;;;15.00;95.20;;;;;;5135929;27;20038;-67
2023/08/11 01:56:24;;;;;;;2.25;1.60;;;15.00;95.10;;;;;;5135919;27;20035;-67
2023/08/11 01:58:50;;;;;;;2.30;1.60;;;15.00;95.10;;;;;;5135753;27;20110;-67
2023/08/11 02:01:15;;;;;;;3.40;1.85;;;15.00;95.10;;;;;;5136100;27;20428;-67
2023/08/11 02:03:41;;;;;;;2.70;1.73;;;15.00;95.20;;;;;;5135935;27;20114;-67
2023/08/11 02:06:06;;;;;;;3.75;1.70;;;15.00;95.20;;;;;;5135717;27;20035;-67
2023/08/11 02:08:33;;;;;;;2.30;1.63;;;15.00;95.20;;;;;;5136295;27;20027;-67
2023/08/11 02:10:58;;;;;;;3.45;1.63;;;15.00;95.20;;;;;;5135269;27;20031;-67
2023/08/11 02:13:24;;;;;;;3.05;1.58;;;15.00;95.30;;;;;;5135996;27;20035;-67
2023/08/11 02:15:50;;;;;;;1.77;1.48;;;15.00;95.20;;;;;;5135280;27;20027;-67
2023/08/11 02:18:15;;;;;;;2.85;1.70;;;15.00;95.30;;;;;;5135757;27;20114;-67
2023/08/11 02:20:41;;;;;;;7.57;2.03;;;15.00;95.40;;;;;;5135591;27;20020;-67
2023/08/11 02:23:08;;;;;;;4.88;1.50;;;15.00;95.40;;;;;;5135707;27;20471;-67
2023/08/11 02:25:34;;;;;;;1.70;1.60;;;15.00;95.40;;;;;;5135305;27;20483;-67
2023/08/11 02:28:00;;;;;;;1.98;1.60;;;14.90;95.50;;;;;;5135230;27;20031;-67
2023/08/11 02:30:29;;;;;;;3.05;1.80;;;14.90;95.50;;;;;;5135495;27;20391;-67
2023/08/11 02:32:55;;;;;;;3.45;1.80;;;14.90;95.60;;;;;;5135031;27;20088;-67
2023/08/11 02:35:21;;;;;;;2.40;1.85;;;14.90;95.70;;;;;;5135350;27;20027;-67
2023/08/11 02:37:47;;;;;;;5.25;1.67;;;14.90;95.70;;;;;;5134959;27;20038;-67
2023/08/11 02:40:14;;;;;;;2.08;1.40;;;14.90;95.80;;;;;;5135397;27;20030;-67
2023/08/11 02:42:45;;;;;;;2.03;1.65;;;14.90;95.80;;;;;;5134809;27;20416;-67
2023/08/11 02:45:11;;;;;;;2.72;1.70;;;14.90;95.80;;;;;;5135152;27;20030;-67
2023/08/11 02:47:39;;;;;;;2.03;1.70;;;14.90;95.90;;;;;;5116601;27;20111;-75
2023/08/11 02:50:05;;;;;;;3.28;1.50;;;14.90;95.90;;;;;;5134516;27;20047;-67
2023/08/11 02:52:31;;;;;;;3.15;1.60;;;14.90;95.90;;;;;;5134945;27;20028;-67
2023/08/11 02:54:56;;;;;;;3.67;2.72;;;14.80;95.90;;;;;;5134629;27;20367;-67
2023/08/11 02:57:22;;;;;;;2.70;1.77;;;14.80;95.90;;;;;;5134547;27;20077;-67
2023/08/11 02:59:49;;;;;;;3.42;1.77;;;14.90;95.80;;;;;;5133777;27;20034;-67
2023/08/11 03:02:16;;;;;;;2.22;1.63;;;14.80;95.90;;;;;;5135069;27;20031;-67
2023/08/11 03:04:43;;;;;;;3.03;1.85;;;14.80;96.00;;;;;;5134577;27;20106;-67
2023/08/11 03:07:09;;;;;;;4.50;1.92;;;14.80;96.20;;;;;;5134556;27;20502;-67
2023/08/11 03:09:35;;;;;;;3.83;1.92;;;14.80;96.30;;;;;;5133754;27;20038;-68
2023/08/11 03:12:01;;;;;;;5.28;2.20;;;14.80;96.30;;;;;;5130997;27;20023;-67
2023/08/11 03:14:26;;;;;;;3.47;2.00;;;14.80;96.50;;;;;;5134371;27;20023;-67
2023/08/11 03:16:53;;;;;;;3.05;2.10;;;14.80;96.50;;;;;;5134142;27;20027;-67
2023/08/11 03:19:19;;;;;;;3.60;1.80;;;14.80;96.50;;;;;;5134539;27;20031;-67
2023/08/11 03:21:45;;;;;;;5.05;2.00;;;14.80;96.40;;;;;;5133754;27;20413;-67
2023/08/11 03:24:10;;;;;;;2.70;2.05;;;14.80;96.50;;;;;;5134627;27;20432;-67
2023/08/11 03:26:36;;;;;;;4.00;2.30;;;14.80;96.60;;;;;;5134431;27;20035;-67
2023/08/11 03:29:02;;;;;;;6.25;2.10;;;14.80;96.70;;;;;;5134012;27;20023;-67
2023/08/11 03:31:29;;;;;;;2.92;1.92;;;14.70;96.80;;;;;;5134476;27;20055;-67
2023/08/11 03:33:54;;;;;;;2.97;1.80;;;14.80;97.00;;;;;;5133862;27;20024;-67
2023/08/11 03:36:21;;;;;;;3.17;1.88;;;14.80;96.80;;;;;;5115807;27;20027;-67
2023/08/11 03:38:46;;;;;;;3.78;1.90;;;14.70;96.80;;;;;;5133507;27;20030;-67
2023/08/11 03:41:12;;;;;;;4.47;2.30;;;14.70;96.90;;;;;;5133883;27;20027;-67
2023/08/11 03:43:37;;;;;;;4.72;2.15;;;14.70;97.20;;;;;;5134083;27;20530;-67
2023/08/11 03:46:03;;;;;;;2.70;1.90;;;14.70;97.20;;;;;;5133521;27;20054;-67
2023/08/11 03:48:29;;;;;;;5.80;2.20;;;14.70;97.20;;;;;;5133664;27;20042;-67
2023/08/11 03:51:01;;;;;;;2.88;1.95;;;14.70;97.20;;;;;;5133669;27;20027;-67
2023/08/11 03:53:27;;;;;;;2.33;1.73;;;14.70;97.20;;;;;;5134126;27;20027;-67
2023/08/11 03:55:53;;;;;;;2.80;1.98;;;14.70;97.30;;;;;;5133538;27;20119;-67
2023/08/11 03:58:21;;;;;;;3.28;2.22;;;14.70;97.50;;;;;;5115963;27;20429;-67
2023/08/11 04:00:47;;;;;;;2.60;2.00;;;14.70;97.50;;;;;;5133455;27;20467;-67
2023/08/11 04:03:14;;;;;;;2.60;2.10;;;14.60;97.50;;;;;;5133809;27;20039;-67
2023/08/11 04:05:44;;;;;;;3.58;1.90;;;14.70;97.60;;;;;;5133474;28;20027;-67
2023/08/11 04:08:09;;;;;;;3.00;2.20;;;14.60;97.70;;;;;;5133657;28;20096;-67
2023/08/11 04:10:35;;;;;;;3.22;1.98;;;14.70;97.60;;;;;;5133512;27;20455;-67
2023/08/11 04:13:01;;;;;;;6.55;2.17;;;14.70;97.70;;;;;;5133326;28;20031;-67
2023/08/11 04:15:27;;;;;;;3.92;2.17;;;14.60;97.70;;;;;;5133511;28;20152;-67
2023/08/11 04:17:53;;;;;;;7.10;2.30;;;14.70;98.00;;;;;;5133366;28;20028;-67
2023/08/11 04:20:18;;;;;;;2.28;1.73;;;14.60;97.90;;;;;;5133732;28;20023;-67
2023/08/11 04:22:44;;;;;;;4.60;2.10;;;14.60;98.10;;;;;;5133258;28;20470;-70
2023/08/11 04:25:12;;;;;;;4.95;1.92;;;14.60;98.40;;;;;;5133606;28;20072;-67
2023/08/11 04:27:42;;;;;;;3.33;2.30;;;14.60;98.40;;;;;;5133938;28;20481;-67
2023/08/11 04:30:09;;;;;;;4.47;2.10;;;14.60;98.70;;;;;;5133263;28;20102;-67
2023/08/11 04:32:35;;;;;;;5.28;1.90;;;14.60;98.60;;;;;;5133712;28;20054;-67
2023/08/11 04:35:00;;;;;;;3.60;2.10;;;14.70;98.70;;;;;;5133281;28;20423;-67
2023/08/11 04:37:26;;;;;;;4.30;2.00;;;14.70;98.70;;;;;;5133554;28;20027;-67
2023/08/11 04:39:52;;;;;;;3.95;2.42;;;14.70;98.90;;;;;;5133210;28;20520;-67
2023/08/11 04:42:19;;;;;;;4.15;2.25;;;14.80;98.80;;;;;;5133316;28;20057;-67
2023/08/11 04:44:45;;;;;;;3.92;2.38;;;14.90;98.80;;;;;;5133286;28;20087;-67
2023/08/11 04:47:10;;;;;;;3.10;2.10;;;15.00;98.60;;;;;;5133201;28;20459;-67
2023/08/11 04:49:36;;;;;;;3.90;2.00;;;15.10;98.50;;;;;;5133430;28;20043;-67
2023/08/11 04:52:02;;;;;;;6.40;2.50;;;15.20;98.10;;;;;;5133129;28;20031;-67
2023/08/11 04:54:28;;;;;;;5.90;2.50;;;15.40;97.80;;;;;;5133127;28;20027;-67
2023/08/11 04:56:53;;;;;;;4.65;2.53;;;15.50;97.60;;;;;;5132705;28;20066;-67
2023/08/11 04:59:19;;;;;;;4.20;2.22;;;15.70;97.20;;;;;;5133639;28;20421;-67
2023/08/11 05:01:45;;;;;;;4.85;2.20;;;15.80;96.90;;;;;;5133038;28;20031;-66
2023/08/11 05:04:10;;;;;;;6.88;2.80;;;16.00;96.70;;;;;;5132550;28;20033;-66
2023/08/11 05:06:36;;;;;;;6.45;2.90;;;16.10;96.30;;;;;;5132987;28;20482;-66
2023/08/11 05:09:05;;;;;;;5.20;3.63;;;16.20;96.30;;;;;;5132536;28;20040;-66
2023/08/11 05:11:31;;;;;;;7.20;3.60;;;16.30;96.00;;;;;;5130202;28;20015;-66
2023/08/11 05:13:56;;;;;;;5.63;3.17;;;16.30;95.80;;;;;;5122786;28;20370;-67
2023/08/11 05:16:24;;;;;;;6.07;3.00;;;16.40;95.90;;;;;;5133090;28;20034;-67
2023/08/11 05:18:49;;;;;;;7.22;3.33;;;16.50;96.10;;;;;;5132738;28;20027;-66
2023/08/11 05:21:17;;;;;;;5.80;3.85;;;16.60;96.30;;;;;;5133498;27;20110;-66
2023/08/11 05:23:42;;;;;;;5.72;3.30;;;16.70;96.00;;;;;;5136778;27;20528;-66
2023/08/11 05:26:08;;;;;;;5.80;3.00;;;16.90;95.60;;;;;;5136348;27;20039;-66
2023/08/11 05:28:34;;;;;;;6.47;4.10;;;17.00;95.10;;;;;;5136716;27;20101;-66
2023/08/11 05:31:01;;;;;;;5.82;3.28;;;17.10;94.90;;;;;;5136247;27;20023;-66
2023/08/11 05:33:26;;;;;;;4.15;3.40;;;17.20;94.70;;;;;;5136571;27;20470;-67
2023/08/11 05:35:52;;;;;;;8.73;3.17;;;17.40;94.10;;;;;;5136083;27;20031;-67
2023/08/11 05:38:21;;;;;;;6.25;3.58;;;17.60;93.80;;;;;;5136616;27;20026;-66
2023/08/11 05:40:47;;;;;;;6.88;3.05;;;17.80;93.20;;;;;;5136597;27;20023;-67
2023/08/11 05:43:13;;;;;;;7.32;3.42;;;18.20;92.10;;;;;;5136023;27;20050;-68
2023/08/11 05:45:38;;;;;;;4.63;3.38;;;18.60;91.60;;;;;;5136323;27;20031;-66
2023/08/11 05:48:04;;;;;;;4.65;3.58;;;18.90;90.10;;;;;;5135345;27;20106;-66
2023/08/11 05:50:30;;;;;;;3.85;3.40;;;19.40;87.20;;;;;;5136377;27;20043;-66
2023/08/11 05:52:56;;;;;;;5.15;3.78;;;19.90;85.90;;;;;;5135457;27;20387;-66
2023/08/11 05:55:22;;;;;;;5.47;3.30;;;20.70;82.20;;;;;;5136011;27;20163;-66
2023/08/11 05:57:48;;;;;;;6.07;3.08;;;21.70;78.50;;;;;;5136502;27;20118;-66
2023/08/11 06:00:16;;;;;;;5.57;3.08;;;22.80;73.60;;;;;;5136033;27;20038;-66
2023/08/11 06:02:42;;;;;;;7.53;3.47;;;23.80;68.90;;;;;;5135970;27;20103;-66
2023/08/11 06:05:08;;;;;;;4.15;3.05;;;24.70;63.60;;;;;;5135476;27;20082;-66
2023/08/11 06:07:33;;;;;;;5.05;3.22;;;25.60;60.80;;;;;;5135980;27;20027;-67
2023/08/11 06:09:59;;;;;;;5.28;2.97;;;26.20;57.90;;;;;;5135864;27;20027;-66
2023/08/11 06:12:25;;;;;;;5.80;2.58;;;26.70;56.50;;;;;;5135577;27;20375;-67
2023/08/11 06:14:50;;;;;;;8.23;2.95;;;27.20;54.60;;;;;;5135738;27;20038;-67
2023/08/11 06:17:16;;;;;;;2.65;2.33;;;27.70;53.20;;;;;;5135218;27;20077;-67
2023/08/11 06:19:41;;;;;;;5.10;2.70;;;28.00;52.10;;;;;;5135814;27;20090;-68
2023/08/11 06:22:07;;;;;;;15.73;5.03;;;28.30;51.10;;;;;;5135004;27;20055;-68
2023/08/11 06:24:33;;;;;;;8.60;2.75;;;28.30;49.90;;;;;;5135780;27;20027;-68
2023/08/11 06:26:59;;;;;;;8.27;3.42;;;28.20;49.00;;;;;;5135194;27;20035;-67
2023/08/11 06:29:24;;;;;;;6.80;3.25;;;27.60;50.40;;;;;;5135249;27;20030;-67
2023/08/11 06:31:50;;;;;;;9.85;2.65;;;27.10;50.50;;;;;;5135682;27;20035;-67
2023/08/11 06:34:17;;;;;;;6.65;2.95;;;27.20;52.50;;;;;;5134793;27;20114;-68
2023/08/11 06:36:44;;;;;;;9.45;3.08;;;27.30;51.90;;;;;;5135173;27;20042;-68
2023/08/11 06:39:10;;;;;;;10.00;3.22;;;27.70;51.50;;;;;;5134857;27;20049;-68
2023/08/11 06:41:36;;;;;;;9.52;2.65;;;28.00;50.90;;;;;;5135343;27;20503;-67
2023/08/11 06:44:01;;;;;;;8.02;2.80;;;28.40;49.10;;;;;;5134365;27;20110;-68
2023/08/11 06:46:27;;;;;;;6.32;2.83;;;28.80;48.60;;;;;;5135266;27;20031;-67
2023/08/11 06:48:53;;;;;;;5.00;2.50;;;29.10;47.80;;;;;;5134888;27;20051;-67
2023/08/11 06:51:18;;;;;;;5.07;2.72;;;29.60;47.30;;;;;;5134606;27;20034;-67
2023/08/11 06:53:44;;;;;;;5.18;2.45;;;30.10;45.50;;;;;;5134356;27;20452;-67
2023/08/11 06:56:09;;;;;;;5.60;2.67;;;30.70;44.90;;;;;;5134045;27;20031;-68
2023/08/11 06:58:35;;;;;;;5.07;2.35;;;31.10;44.80;;;;;;5134763;27;20038;-67
2023/08/11 07:01:00;;;;;;;5.05;2.30;;;31.30;43.60;;;;;;5133982;27;20023;-68
2023/08/11 07:03:26;;;;;;;6.22;2.08;;;31.70;42.80;;;;;;5135143;27;20134;-67
2023/08/11 07:05:51;;;;;;;2.88;2.13;;;32.00;43.30;;;;;;5134770;27;20039;-67
2023/08/11 07:08:20;;;;;;;5.88;2.05;;;31.90;40.20;;;;;;5133455;27;20053;-68
2023/08/11 07:10:46;;;;;;;3.25;1.90;;;32.20;40.80;;;;;;5116280;27;20030;-67
2023/08/11 07:13:11;;;;;;;2.90;1.75;;;32.70;40.20;;;;;;5113669;28;20380;-68
2023/08/11 07:15:40;;;;;;;4.28;1.52;;;32.90;39.00;;;;;;5113811;28;20050;-67
2023/08/11 07:18:06;;;;;;;3.08;1.40;;;33.60;37.90;;;;;;5113487;28;20084;-66
2023/08/11 07:20:32;;;;;;;2.20;1.52;;;34.10;37.60;;;;;;5132524;27;20031;-67
2023/08/11 07:22:57;;;;;;;3.58;1.75;;;34.50;36.40;;;;;;5134057;27;20084;-69
2023/08/11 07:25:23;;;;;;;3.42;1.50;;;35.20;35.80;;;;;;5134456;27;20019;-66
2023/08/11 07:27:49;;;;;;;3.70;1.63;;;35.70;34.50;;;;;;5133966;27;20463;-66
2023/08/11 07:30:14;;;;;;;1.70;1.45;;;36.00;34.80;;;;;;5134022;27;20374;-66
2023/08/11 07:32:41;;;;;;;2.80;1.58;;;36.50;33.70;;;;;;5134296;27;20019;-66
2023/08/11 07:35:07;;;;;;;3.63;1.42;;;36.70;32.90;;;;;;5133520;27;20030;-67
2023/08/11 07:37:33;;;;;;;2.88;1.48;;;36.80;33.20;;;;;;5133844;27;20035;-68
2023/08/11 07:39:58;;;;;;;2.15;1.90;;;36.40;32.90;;;;;;5133421;27;20432;-74
2023/08/11 07:42:24;;;;;;;6.55;1.60;;;36.60;33.30;;;;;;5133972;27;20030;-67
2023/08/11 07:44:49;;;;;;;1.90;1.40;;;36.70;33.20;;;;;;5133167;27;20386;-67
2023/08/11 07:47:15;;;;;;;4.03;1.50;;;36.50;33.30;;;;;;5133470;27;20031;-67
2023/08/11 07:49:41;;;;;;;2.05;1.77;;;36.70;32.70;;;;;;5133902;27;20047;-67
2023/08/11 07:52:06;;;;;;;4.13;2.00;;;37.10;32.70;;;;;;5133291;27;20031;-67
2023/08/11 07:54:32;;;;;;;2.20;1.70;;;37.40;32.20;;;;;;5134441;27;20027;-67
2023/08/11 07:56:58;;;;;;;2.42;1.40;;;37.60;31.70;;;;;;5133626;27;20379;-67
2023/08/11 07:59:23;;;;;;;3.50;1.60;;;37.70;31.70;;;;;;5133441;27;20031;-67
2023/08/11 08:01:51;;;;;;;3.20;1.48;;;37.80;31.60;;;;;;5133886;27;20027;-67
2023/08/11 08:04:17;;;;;;;3.22;1.65;;;37.80;31.80;;;;;;5133834;27;20068;-67
2023/08/11 08:06:45;;;;;;;1.77;1.20;;;37.60;31.70;;;;;;5133902;27;20043;-67
2023/08/11 08:09:14;;;;;;;1.55;1.45;;;37.90;31.90;;;;;;5133188;28;20031;-67
2023/08/11 08:11:42;;;;;;;5.03;1.50;;;38.10;31.70;;;;;;5133754;28;20034;-67
2023/08/11 08:14:08;;;;;;;3.00;1.60;;;38.10;30.80;;;;;;5133418;28;20027;-67
2023/08/11 08:16:34;;;;;;;4.82;1.33;;;37.30;31.50;;;;;;5133379;28;20109;-67
2023/08/11 08:19:00;;;;;;;1.48;1.25;;;37.30;31.80;;;;;;5133678;28;20031;-67
2023/08/11 08:21:26;;;;;;;2.08;1.38;;;37.20;32.00;;;;;;5133197;28;20026;-67
2023/08/11 08:23:51;;;;;;;3.30;1.20;;;37.20;32.00;;;;;;5133978;28;20403;-68
2023/08/11 08:26:17;;;;;;;2.88;1.42;;;36.90;32.50;;;;;;5132957;28;20383;-67
2023/08/11 08:28:43;;;;;;;1.77;1.40;;;36.80;31.90;;;;;;5133707;28;20034;-67
2023/08/11 08:31:08;;;;;;;1.65;1.40;;;36.40;32.30;;;;;;5133280;28;20577;-68
2023/08/11 08:33:34;;;;;;;1.50;1.40;;;35.80;32.40;;;;;;5133481;28;20413;-68
2023/08/11 08:35:59;;;;;;;2.13;1.52;;;35.90;33.40;;;;;;5133179;28;20079;-67
2023/08/11 08:38:25;;;;;;;2.42;1.80;;;35.90;33.50;;;;;;5133064;28;20039;-68
2023/08/11 08:40:51;;;;;;;2.22;1.60;;;35.70;33.30;;;;;;5133565;28;20026;-67
2023/08/11 08:43:16;;;;;;;2.65;1.40;;;35.70;34.00;;;;;;5131834;27;20023;-67
2023/08/11 08:45:44;;;;;;;1.58;1.48;;;35.70;33.20;;;;;;5133032;28;20059;-67
2023/08/11 08:48:23;;;;;;;2.78;1.50;;;35.10;33.00;;;;;;5133270;28;20448;-68
2023/08/11 08:50:49;;;;;;;3.10;1.60;;;34.60;32.80;;;;;;5114584;28;20126;-68
2023/08/11 08:53:15;;;;;;;3.85;1.90;;;34.50;34.00;;;;;;5126808;28;20011;-67
2023/08/11 08:55:41;;;;;;;5.55;2.10;;;34.50;35.00;;;;;;5115401;27;20544;-66
2023/08/11 08:58:09;;;;;;;4.75;1.90;;;33.90;35.20;;;;;;5136738;27;20052;-67
2023/08/11 09:00:35;;;;;;;3.85;1.73;;;33.80;37.00;;;;;;5137175;27;20031;-66
2023/08/11 09:03:03;;;;;;;2.00;1.50;;;33.80;36.10;;;;;;5137462;27;20034;-66
2023/08/11 09:05:29;;;;;;;2.10;1.45;;;33.50;34.40;;;;;;5136966;27;20016;-67
2023/08/11 09:07:54;;;;;;;2.03;1.40;;;33.30;35.20;;;;;;5137310;27;20471;-67
2023/08/11 09:10:20;;;;;;;4.00;1.48;;;33.20;36.20;;;;;;5136794;27;20055;-67
2023/08/11 09:12:48;;;;;;;1.77;1.35;;;32.90;35.20;;;;;;5137135;27;20031;-66
2023/08/11 09:15:14;;;;;;;2.67;1.15;;;32.40;34.30;;;;;;5136371;27;20387;-68
2023/08/11 09:17:40;;;;;;;2.58;1.20;;;32.00;33.00;;;;;;5136608;27;20031;-67
2023/08/11 09:20:09;;;;;;;2.05;1.20;;;31.60;33.50;;;;;;5136555;27;20456;-67
2023/08/11 09:22:38;;;;;;;3.60;1.40;;;31.30;34.50;;;;;;5136923;27;20109;-67
2023/08/11 09:25:04;;;;;;;1.63;1.30;;;30.80;35.10;;;;;;5136732;27;20478;-66
2023/08/11 09:27:30;;;;;;;2.65;1.52;;;30.60;34.00;;;;;;5136120;27;20035;-67
2023/08/11 09:29:57;;;;;;;1.77;1.13;;;30.30;35.20;;;;;;5118558;27;20047;-67
2023/08/11 09:32:23;;;;;;;1.90;1.30;;;30.20;36.30;;;;;;5136197;27;20038;-67
2023/08/11 09:34:49;;;;;;;2.22;1.30;;;29.90;36.30;;;;;;5136539;27;20076;-67
2023/08/11 09:37:14;;;;;;;1.50;1.23;;;29.70;36.50;;;;;;5117734;27;20035;-67
2023/08/11 09:39:42;;;;;;;1.65;1.13;;;29.40;36.60;;;;;;5136298;27;20109;-67
2023/08/11 09:42:08;;;;;;;1.88;1.20;;;28.60;36.60;;;;;;5136086;27;20027;-67
2023/08/11 09:44:34;;;;;;;2.00;1.55;;;28.60;38.80;;;;;;5136388;27;20035;-66
2023/08/11 09:47:01;;;;;;;2.50;1.90;;;28.70;38.20;;;;;;5136439;27;20027;-67
2023/08/11 09:49:26;;;;;;;3.53;1.50;;;28.40;37.20;;;;;;5135553;27;20413;-66
2023/08/11 09:51:55;;;;;;;3.92;1.38;;;28.30;37.90;;;;;;5136365;27;20027;-67
2023/08/11 09:54:22;;;;;;;2.78;1.38;;;28.20;37.90;;;;;;5135839;27;20019;-67
2023/08/11 09:56:49;;;;;;;1.25;1.15;;;28.20;38.20;;;;;;5136304;27;20030;-66
2023/08/11 09:59:19;;;;;;;2.30;1.50;;;28.20;38.50;;;;;;5135576;27;20030;-68
2023/08/11 10:01:45;;;;;;;3.27;1.53;;;28.10;40.30;;;;;;5135843;27;20030;-67
2023/08/11 10:04:33;;;;;;;3.92;1.13;;;28.10;39.50;;;;;;5135568;27;20251;-68
2023/08/11 10:07:01;;;;;;;2.30;1.10;;;28.10;38.00;;;;;;5135126;27;20051;-67
2023/08/11 10:09:29;;;;;;;1.50;1.10;;;28.10;37.30;;;;;;5135410;27;20038;-67
2023/08/11 10:11:58;;;;;;;2.20;1.10;;;28.20;37.90;;;;;;5135884;27;20030;-68
2023/08/11 10:14:27;;;;;;;1.95;1.08;;;28.20;38.60;;;;;;5116943;27;20055;-66
2023/08/11 10:16:53;;;;;;;1.42;1.23;;;28.20;38.60;;;;;;5135289;27;20486;-67
2023/08/11 10:19:20;;;;;;;2.58;1.10;;;28.30;37.10;;;;;;5135237;27;20031;-66
2023/08/11 10:21:46;;;;;;;1.25;1.10;;;28.40;38.20;;;;;;5135712;27;20034;-68
2023/08/11 10:24:12;;;;;;;1.10;1.00;;;28.50;37.00;;;;;;5134905;27;20379;-67
2023/08/11 10:26:38;;;;;;;2.95;1.50;;;28.50;37.20;;;;;;5135890;27;20035;-67
2023/08/11 10:29:04;;;;;;;2.20;1.20;;;28.50;35.90;;;;;;5135539;27;20098;-66
2023/08/11 10:31:31;;;;;;;3.95;1.10;;;28.50;36.90;;;;;;5135005;27;20062;-67
2023/08/11 10:33:58;;;;;;;1.70;1.23;;;28.50;36.10;;;;;;5135080;27;20102;-67
2023/08/11 10:36:26;;;;;;;1.25;1.15;;;28.50;36.00;;;;;;5134763;27;20027;-66
2023/08/11 10:39:03;;;;;;;1.95;1.27;;;28.60;35.20;;;;;;5135376;27;20080;-67
2023/08/11 10:41:30;;;;;;;1.70;1.02;;;28.50;35.40;;;;;;5134893;27;20088;-67
2023/08/11 10:43:57;;;;;;;1.95;1.20;;;28.50;34.80;;;;;;5135196;27;20447;-68
2023/08/11 10:46:23;;;;;;;1.92;1.10;;;28.50;35.50;;;;;;5134498;27;20483;-68
2023/08/11 10:48:52;;;;;;;2.45;1.00;;;28.50;34.70;;;;;;5134260;27;20087;-68
2023/08/11 10:51:36;;;;;;;2.17;1.30;;;28.50;34.70;;;;;;5130677;27;20053;-66
2023/08/11 10:54:11;;;;;;;1.85;1.30;;;28.40;34.00;;;;;;5114468;28;20027;-66
2023/08/11 10:56:42;;;;;;;1.60;1.30;;;28.30;34.40;;;;;;5114417;28;20573;-67
2023/08/11 10:59:11;;;;;;;;;;;28.30;34.70;;;;;;5114556;28;20032;-68
2023/08/11 11:01:39;;;;;;;1.70;1.30;;;28.30;36.70;;;;;;5113672;28;19923;-68
2023/08/11 11:04:07;;;;;;;1.77;1.30;;;28.40;37.70;;;;;;5114288;28;20027;-67
2023/08/11 11:06:34;;;;;;;1.83;1.40;;;28.40;35.30;;;;;;5113840;28;20315;-67
2023/08/11 11:09:00;;;;;;;1.83;1.35;;;28.50;35.60;;;;;;5114224;28;20023;-67
2023/08/11 11:11:26;;;;;;;1.30;1.20;;;28.40;35.30;;;;;;5113710;28;20036;-67
2023/08/11 11:13:52;;;;;;;2.20;1.40;;;28.30;35.80;;;;;;5113751;28;20020;-67
2023/08/11 11:16:19;;;;;;;1.80;1.25;;;28.20;36.40;;;;;;5113331;28;20028;-67
2023/08/11 11:18:47;;;;;;;5.25;1.45;;;28.10;35.70;;;;;;5113151;28;20032;-67
2023/08/11 11:21:14;;;;;;;2.55;1.30;;;28.30;36.30;;;;;;5113703;28;20104;-67
2023/08/11 11:23:50;;;;;;;1.45;1.23;;;28.30;35.70;;;;;;5113826;28;20019;-67
2023/08/11 11:26:23;;;;;;;1.48;1.00;;;28.40;35.70;;;;;;5113287;28;20032;-67
2023/08/11 11:28:49;;;;;;;2.42;1.50;;;28.50;35.20;;;;;;5113787;28;20028;-67
2023/08/11 11:31:16;;;;;;;1.77;1.30;;;28.60;36.40;;;;;;5113126;28;20027;-70
2023/08/11 11:33:42;;;;;;;1.33;1.23;;;28.50;35.90;;;;;;5095218;28;20032;-66
2023/08/11 11:36:08;;;;;;;3.13;1.30;;;28.60;36.50;;;;;;5113639;28;20047;-67
2023/08/11 11:38:34;;;;;;;1.30;1.08;;;28.60;36.10;;;;;;5094950;28;20452;-67
2023/08/11 11:40:59;;;;;;;1.77;1.10;;;28.60;35.90;;;;;;5113839;28;20031;-67
2023/08/11 11:43:25;;;;;;;2.03;1.42;;;28.50;35.30;;;;;;5113273;28;20030;-66
2023/08/11 11:45:52;;;;;;;1.45;1.27;;;28.40;35.90;;;;;;5113495;28;20106;-66
2023/08/11 11:48:20;;;;;;;2.35;1.40;;;28.50;35.90;;;;;;5112913;28;20031;-67
2023/08/11 11:50:46;;;;;;;2.40;1.23;;;28.40;34.60;;;;;;5113234;28;20039;-67
2023/08/11 11:53:12;;;;;;;2.55;1.25;;;28.10;33.90;;;;;;5113392;28;20024;-66
2023/08/11 11:55:47;;;;;;;1.88;1.40;;;28.10;34.40;;;;;;5112884;28;20482;-66
2023/08/11 11:58:15;;;;;;;1.33;1.05;;;28.10;35.80;;;;;;5113224;28;20110;-67
2023/08/11 12:00:41;;;;;;;3.17;1.58;;;28.10;36.60;;;;;;5112937;28;20062;-67
2023/08/11 12:03:08;;;;;;;2.58;1.30;;;28.20;35.80;;;;;;5113499;28;20030;-67
2023/08/11 12:05:34;;;;;;;2.25;1.30;;;28.10;35.30;;;;;;5112934;28;20038;-67
2023/08/11 12:08:00;;;;;;;2.08;1.40;;;28.10;34.80;;;;;;5113603;28;20028;-67
2023/08/11 12:10:33;;;;;;;1.63;1.50;;;28.10;35.50;;;;;;5112940;28;20027;-67
2023/08/11 12:13:03;;;;;;;2.40;1.38;;;28.00;36.30;;;;;;5113232;28;20023;-66
2023/08/11 12:15:31;;;;;;;2.05;1.35;;;27.90;37.40;;;;;;5112715;28;20034;-66
2023/08/11 12:17:57;;;;;;;4.70;1.10;;;27.80;37.10;;;;;;5112773;28;20036;-68
2023/08/11 12:20:23;;;;;;;2.47;1.50;;;27.70;37.00;;;;;;5112771;28;20045;-66
2023/08/11 12:22:49;;;;;;;2.25;1.40;;;27.60;36.60;;;;;;5113125;28;20069;-68
2023/08/11 12:25:16;;;;;;;3.58;1.33;;;27.60;36.10;;;;;;5112837;28;20024;-67
2023/08/11 12:27:41;;;;;;;1.60;1.10;;;27.50;36.20;;;;;;5112593;28;20073;-67
2023/08/11 12:30:10;;;;;;;1.40;1.10;;;27.40;37.10;;;;;;5113060;28;20027;-67
2023/08/11 12:32:36;;;;;;;1.50;1.00;;;27.40;36.90;;;;;;5116850;28;20039;-68
2023/08/11 12:35:02;;;;;;;2.15;1.52;;;27.30;36.80;;;;;;5116807;28;20024;-67
2023/08/11 12:37:28;;;;;;;1.83;1.30;;;27.30;37.40;;;;;;5116666;28;20020;-67
2023/08/11 12:39:54;;;;;;;1.95;1.50;;;27.20;37.50;;;;;;5117146;28;20084;-65
2023/08/11 12:42:19;;;;;;;1.77;1.38;;;27.20;38.70;;;;;;5117390;28;20077;-67
2023/08/11 12:44:46;;;;;;;3.50;1.58;;;27.10;37.20;;;;;;5117338;28;20030;-66
2023/08/11 12:47:11;;;;;;;1.88;1.25;;;27.10;37.10;;;;;;5134416;27;20038;-66